sensor_id;sensor_type;location;lat;lon;timestamp;temperature;humidity
2489;DHT22;1255;48.716;9.124;2023-07-13T00:02:18;19.80;99.90
2489;DHT22;1255;48.716;9.124;2023-07-13T00:04:44;19.70;99.90
2489;DHT22;1255;48.716;9.124;2023-07-13T00:07:11;19.70;99.90
2489;DHT22;1255;48.716;9.124;2023-07-13T00:09:41;19.70;99.90
2489;DHT22;1255;48.716;9.124;2023-07-13T00:12:23;19.70;99.90
2489;DHT22;1255;48.716;9.124;2023-07-13T00:14:50;19.70;99.90
2489;DHT22;1255;48.716;9.124;2023-07-13T00:17:17;19.70;99.90
2489;DHT22;1255;48.716;9.124;2023-07-13T00:19:43;19.60;99.90
2489;DHT22;1255;48.716;9.124;2023-07-13T00:22:11;19.60;99.90
2489;DHT22;1255;48.716;9.124;2023-07-13T00:24:38;19.60;99.90
2489;DHT22;1255;48.716;9.124;2023-07-13T00:27:08;19.60;99.90
2489;DHT22;1255;48.716;9.124;2023-07-13T00:29:35;19.50;99.90
2489;DHT22;1255;48.716;9.124;2023-07-13T00:32:03;19.50;99.90
2489;DHT22;1255;48.716;9.124;2023-07-13T00:34:30;19.50;99.90
2489;DHT22;1255;48.716;9.124;2023-07-13T00:36:57;19.50;99.90
2489;DHT22;1255;48.716;9.124;2023-07-13T00:39:24;19.40;99.90
2489;DHT22;1255;48.716;9.124;2023-07-13T00:41:51;19.40;99.90
2489;DHT22;1255;48.716;9.124;2023-07-13T00:44:20;19.50;99.90
2489;DHT22;1255;48.716;9.124;2023-07-13T00:46:48;19.40;99.90
2489;DHT22;1255;48.716;9.124;2023-07-13T00:49:18;19.40;99.90
2489;DHT22;1255;48.716;9.124;2023-07-13T00:51:48;19.40;99.90
2489;DHT22;1255;48.716;9.124;2023-07-13T00:54:18;19.30;99.90
2489;DHT22;1255;48.716;9.124;2023-07-13T00:56:49;19.30;99.90
2489;DHT22;1255;48.716;9.124;2023-07-13T00:59:19;19.20;99.90
2489;DHT22;1255;48.716;9.124;2023-07-13T01:01:47;19.20;99.90
2489;DHT22;1255;48.716;9.124;2023-07-13T01:04:14;19.10;99.90
2489;DHT22;1255;48.716;9.124;2023-07-13T01:06:42;19.10;99.90
2489;DHT22;1255;48.716;9.124;2023-07-13T01:09:10;19.00;99.90
2489;DHT22;1255;48.716;9.124;2023-07-13T01:11:37;18.90;99.90
2489;DHT22;1255;48.716;9.124;2023-07-13T01:14:04;18.90;99.90
2489;DHT22;1255;48.716;9.124;2023-07-13T01:16:34;18.90;99.90
2489;DHT22;1255;48.716;9.124;2023-07-13T01:19:02;18.80;99.90
2489;DHT22;1255;48.716;9.124;2023-07-13T01:21:32;18.80;99.90
2489;DHT22;1255;48.716;9.124;2023-07-13T01:24:00;18.80;99.90
2489;DHT22;1255;48.716;9.124;2023-07-13T01:26:27;18.70;99.90
2489;DHT22;1255;48.716;9.124;2023-07-13T01:28:54;18.60;99.90
2489;DHT22;1255;48.716;9.124;2023-07-13T01:31:22;18.60;99.90
2489;DHT22;1255;48.716;9.124;2023-07-13T01:33:49;18.60;99.90
2489;DHT22;1255;48.716;9.124;2023-07-13T01:36:15;18.50;99.90
2489;DHT22;1255;48.716;9.124;2023-07-13T01:38:44;18.50;99.90
2489;DHT22;1255;48.716;9.124;2023-07-13T01:41:11;18.40;99.90
2489;DHT22;1255;48.716;9.124;2023-07-13T01:43:37;18.30;99.90
2489;DHT22;1255;48.716;9.124;2023-07-13T01:46:04;18.20;99.90
2489;DHT22;1255;48.716;9.124;2023-07-13T01:48:31;18.10;99.90
2489;DHT22;1255;48.716;9.124;2023-07-13T01:50:58;18.10;99.90
2489;DHT22;1255;48.716;9.124;2023-07-13T01:53:25;18.00;99.90
2489;DHT22;1255;48.716;9.124;2023-07-13T01:55:53;17.90;99.90
2489;DHT22;1255;48.716;9.124;2023-07-13T01:58:20;17.80;99.90
2489;DHT22;1255;48.716;9.124;2023-07-13T02:00:48;17.80;99.90
2489;DHT22;1255;48.716;9.124;2023-07-13T02:03:15;17.80;99.90
2489;DHT22;1255;48.716;9.124;2023-07-13T02:05:43;17.70;99.90
2489;DHT22;1255;48.716;9.124;2023-07-13T02:08:10;17.70;99.90
2489;DHT22;1255;48.716;9.124;2023-07-13T02:10:37;17.70;99.90
2489;DHT22;1255;48.716;9.124;2023-07-13T02:13:06;17.60;99.90
2489;DHT22;1255;48.716;9.124;2023-07-13T02:15:32;17.50;99.90
2489;DHT22;1255;48.716;9.124;2023-07-13T02:17:59;17.50;99.90
2489;DHT22;1255;48.716;9.124;2023-07-13T02:20:26;17.40;99.90
2489;DHT22;1255;48.716;9.124;2023-07-13T02:22:52;17.30;99.90
2489;DHT22;1255;48.716;9.124;2023-07-13T02:25:19;17.30;99.90
2489;DHT22;1255;48.716;9.124;2023-07-13T02:27:46;17.10;99.90
2489;DHT22;1255;48.716;9.124;2023-07-13T02:30:14;17.10;99.90
2489;DHT22;1255;48.716;9.124;2023-07-13T02:32:41;17.00;99.90
2489;DHT22;1255;48.716;9.124;2023-07-13T02:35:09;16.90;99.90
2489;DHT22;1255;48.716;9.124;2023-07-13T02:37:36;16.90;99.90
2489;DHT22;1255;48.716;9.124;2023-07-13T02:40:03;16.80;99.90
2489;DHT22;1255;48.716;9.124;2023-07-13T02:42:33;16.70;99.90
2489;DHT22;1255;48.716;9.124;2023-07-13T02:45:00;16.70;99.90
2489;DHT22;1255;48.716;9.124;2023-07-13T02:47:31;16.70;99.90
2489;DHT22;1255;48.716;9.124;2023-07-13T02:49:58;16.70;99.90
2489;DHT22;1255;48.716;9.124;2023-07-13T02:52:24;16.60;99.90
2489;DHT22;1255;48.716;9.124;2023-07-13T02:54:51;16.60;99.90
2489;DHT22;1255;48.716;9.124;2023-07-13T02:57:18;16.60;99.90
2489;DHT22;1255;48.716;9.124;2023-07-13T02:59:45;16.50;99.90
2489;DHT22;1255;48.716;9.124;2023-07-13T03:02:11;16.50;99.90
2489;DHT22;1255;48.716;9.124;2023-07-13T03:04:39;16.50;99.90
2489;DHT22;1255;48.716;9.124;2023-07-13T03:07:06;16.50;99.90
2489;DHT22;1255;48.716;9.124;2023-07-13T03:09:34;16.50;99.90
2489;DHT22;1255;48.716;9.124;2023-07-13T03:12:01;16.40;99.90
2489;DHT22;1255;48.716;9.124;2023-07-13T03:14:27;16.40;99.90
2489;DHT22;1255;48.716;9.124;2023-07-13T03:16:55;16.40;99.90
2489;DHT22;1255;48.716;9.124;2023-07-13T03:19:22;16.30;99.90
2489;DHT22;1255;48.716;9.124;2023-07-13T03:21:50;16.30;99.90
2489;DHT22;1255;48.716;9.124;2023-07-13T03:24:17;16.30;99.90
2489;DHT22;1255;48.716;9.124;2023-07-13T03:26:44;16.30;99.90
2489;DHT22;1255;48.716;9.124;2023-07-13T03:29:10;16.30;99.90
2489;DHT22;1255;48.716;9.124;2023-07-13T03:31:37;16.30;99.90
2489;DHT22;1255;48.716;9.124;2023-07-13T03:34:04;16.30;99.90
2489;DHT22;1255;48.716;9.124;2023-07-13T03:36:32;16.30;99.90
2489;DHT22;1255;48.716;9.124;2023-07-13T03:39:02;16.30;99.90
2489;DHT22;1255;48.716;9.124;2023-07-13T03:41:29;16.30;99.90
2489;DHT22;1255;48.716;9.124;2023-07-13T03:43:57;16.30;99.90
2489;DHT22;1255;48.716;9.124;2023-07-13T03:46:24;16.30;99.90
2489;DHT22;1255;48.716;9.124;2023-07-13T03:48:50;16.30;99.90
2489;DHT22;1255;48.716;9.124;2023-07-13T03:51:18;16.40;99.90
2489;DHT22;1255;48.716;9.124;2023-07-13T03:53:47;16.40;99.90
2489;DHT22;1255;48.716;9.124;2023-07-13T03:56:16;16.40;99.90
2489;DHT22;1255;48.716;9.124;2023-07-13T03:58:45;16.40;99.90
2489;DHT22;1255;48.716;9.124;2023-07-13T04:01:12;16.40;99.90
2489;DHT22;1255;48.716;9.124;2023-07-13T04:03:40;16.40;99.90
2489;DHT22;1255;48.716;9.124;2023-07-13T04:06:08;16.40;99.90
2489;DHT22;1255;48.716;9.124;2023-07-13T04:08:40;16.40;99.90
2489;DHT22;1255;48.716;9.124;2023-07-13T04:11:07;16.40;99.90
2489;DHT22;1255;48.716;9.124;2023-07-13T04:13:35;16.40;99.90
2489;DHT22;1255;48.716;9.124;2023-07-13T04:16:02;16.40;99.90
2489;DHT22;1255;48.716;9.124;2023-07-13T04:18:29;16.40;99.90
2489;DHT22;1255;48.716;9.124;2023-07-13T04:20:56;16.50;99.90
2489;DHT22;1255;48.716;9.124;2023-07-13T04:23:22;16.50;99.90
2489;DHT22;1255;48.716;9.124;2023-07-13T04:25:52;16.50;99.90
2489;DHT22;1255;48.716;9.124;2023-07-13T04:28:19;16.50;99.90
2489;DHT22;1255;48.716;9.124;2023-07-13T04:30:47;16.50;99.90
2489;DHT22;1255;48.716;9.124;2023-07-13T04:33:14;16.60;99.90
2489;DHT22;1255;48.716;9.124;2023-07-13T04:35:42;16.60;99.90
2489;DHT22;1255;48.716;9.124;2023-07-13T04:38:09;16.60;99.90
2489;DHT22;1255;48.716;9.124;2023-07-13T04:40:37;16.60;99.90
2489;DHT22;1255;48.716;9.124;2023-07-13T04:43:03;16.60;99.90
2489;DHT22;1255;48.716;9.124;2023-07-13T04:45:30;16.60;99.90
2489;DHT22;1255;48.716;9.124;2023-07-13T04:47:58;16.60;99.90
2489;DHT22;1255;48.716;9.124;2023-07-13T04:50:25;16.60;99.90
2489;DHT22;1255;48.716;9.124;2023-07-13T04:52:52;16.60;99.90
2489;DHT22;1255;48.716;9.124;2023-07-13T04:55:19;16.60;99.90
2489;DHT22;1255;48.716;9.124;2023-07-13T04:57:46;16.60;99.90
2489;DHT22;1255;48.716;9.124;2023-07-13T05:00:14;16.60;99.90
2489;DHT22;1255;48.716;9.124;2023-07-13T05:02:44;16.60;99.90
2489;DHT22;1255;48.716;9.124;2023-07-13T05:05:12;16.60;99.90
2489;DHT22;1255;48.716;9.124;2023-07-13T05:07:38;16.60;99.90
2489;DHT22;1255;48.716;9.124;2023-07-13T05:10:06;16.60;99.90
2489;DHT22;1255;48.716;9.124;2023-07-13T05:12:33;16.70;99.90
2489;DHT22;1255;48.716;9.124;2023-07-13T05:15:00;16.70;99.90
2489;DHT22;1255;48.716;9.124;2023-07-13T05:17:27;16.80;99.90
2489;DHT22;1255;48.716;9.124;2023-07-13T05:19:54;16.80;99.90
2489;DHT22;1255;48.716;9.124;2023-07-13T05:22:22;16.90;99.90
2489;DHT22;1255;48.716;9.124;2023-07-13T05:24:49;16.90;99.90
2489;DHT22;1255;48.716;9.124;2023-07-13T05:27:15;17.00;99.90
2489;DHT22;1255;48.716;9.124;2023-07-13T05:29:42;17.10;99.90
2489;DHT22;1255;48.716;9.124;2023-07-13T05:32:09;17.10;99.90
2489;DHT22;1255;48.716;9.124;2023-07-13T05:34:36;17.20;99.90
2489;DHT22;1255;48.716;9.124;2023-07-13T05:37:03;17.30;99.90
2489;DHT22;1255;48.716;9.124;2023-07-13T05:39:31;17.30;99.90
2489;DHT22;1255;48.716;9.124;2023-07-13T05:41:58;17.30;99.90
2489;DHT22;1255;48.716;9.124;2023-07-13T05:44:24;17.40;99.90
2489;DHT22;1255;48.716;9.124;2023-07-13T05:46:51;17.40;99.90
2489;DHT22;1255;48.716;9.124;2023-07-13T05:49:18;17.50;99.90
2489;DHT22;1255;48.716;9.124;2023-07-13T05:51:45;17.40;99.90
2489;DHT22;1255;48.716;9.124;2023-07-13T05:54:11;17.40;99.90
2489;DHT22;1255;48.716;9.124;2023-07-13T05:56:39;17.50;99.90
2489;DHT22;1255;48.716;9.124;2023-07-13T05:59:06;17.50;99.90
2489;DHT22;1255;48.716;9.124;2023-07-13T06:01:33;17.50;99.90
2489;DHT22;1255;48.716;9.124;2023-07-13T06:04:00;17.60;99.90
2489;DHT22;1255;48.716;9.124;2023-07-13T06:06:27;17.60;99.90
2489;DHT22;1255;48.716;9.124;2023-07-13T06:08:53;17.60;99.90
2489;DHT22;1255;48.716;9.124;2023-07-13T06:11:23;17.60;99.90
2489;DHT22;1255;48.716;9.124;2023-07-13T06:13:51;17.70;99.90
2489;DHT22;1255;48.716;9.124;2023-07-13T06:16:18;17.70;99.90
2489;DHT22;1255;48.716;9.124;2023-07-13T06:18:45;17.80;99.90
2489;DHT22;1255;48.716;9.124;2023-07-13T06:21:14;17.80;99.90
2489;DHT22;1255;48.716;9.124;2023-07-13T06:23:42;17.80;99.90
2489;DHT22;1255;48.716;9.124;2023-07-13T06:26:09;17.90;99.90
2489;DHT22;1255;48.716;9.124;2023-07-13T06:28:37;18.00;99.90
2489;DHT22;1255;48.716;9.124;2023-07-13T06:31:07;18.10;99.90
2489;DHT22;1255;48.716;9.124;2023-07-13T06:33:34;18.20;99.90
2489;DHT22;1255;48.716;9.124;2023-07-13T06:36:01;18.30;99.90
2489;DHT22;1255;48.716;9.124;2023-07-13T06:38:28;18.30;99.90
2489;DHT22;1255;48.716;9.124;2023-07-13T06:40:55;18.40;99.90
2489;DHT22;1255;48.716;9.124;2023-07-13T06:43:22;18.60;99.90
2489;DHT22;1255;48.716;9.124;2023-07-13T06:45:50;18.60;99.90
2489;DHT22;1255;48.716;9.124;2023-07-13T06:48:19;18.70;99.90
2489;DHT22;1255;48.716;9.124;2023-07-13T06:50:48;18.80;99.90
2489;DHT22;1255;48.716;9.124;2023-07-13T06:53:18;18.80;99.90
2489;DHT22;1255;48.716;9.124;2023-07-13T06:55:45;18.90;99.90
2489;DHT22;1255;48.716;9.124;2023-07-13T06:58:12;19.00;99.90
2489;DHT22;1255;48.716;9.124;2023-07-13T07:00:39;19.10;99.90
2489;DHT22;1255;48.716;9.124;2023-07-13T07:03:06;19.10;99.90
2489;DHT22;1255;48.716;9.124;2023-07-13T07:05:34;19.20;99.90
2489;DHT22;1255;48.716;9.124;2023-07-13T07:08:01;19.20;99.90
2489;DHT22;1255;48.716;9.124;2023-07-13T07:10:29;19.20;99.90
2489;DHT22;1255;48.716;9.124;2023-07-13T07:12:56;19.30;99.90
2489;DHT22;1255;48.716;9.124;2023-07-13T07:15:23;19.30;99.90
2489;DHT22;1255;48.716;9.124;2023-07-13T07:17:50;19.40;99.90
2489;DHT22;1255;48.716;9.124;2023-07-13T07:20:17;19.50;99.90
2489;DHT22;1255;48.716;9.124;2023-07-13T07:22:45;19.50;99.90
2489;DHT22;1255;48.716;9.124;2023-07-13T07:25:11;19.60;99.90
2489;DHT22;1255;48.716;9.124;2023-07-13T07:27:38;19.70;99.90
2489;DHT22;1255;48.716;9.124;2023-07-13T07:30:09;19.70;99.90
2489;DHT22;1255;48.716;9.124;2023-07-13T07:32:36;19.80;99.90
2489;DHT22;1255;48.716;9.124;2023-07-13T07:35:04;19.90;99.90
2489;DHT22;1255;48.716;9.124;2023-07-13T07:37:31;20.00;99.90
2489;DHT22;1255;48.716;9.124;2023-07-13T07:39:59;20.00;99.90
2489;DHT22;1255;48.716;9.124;2023-07-13T07:42:26;20.10;99.90
2489;DHT22;1255;48.716;9.124;2023-07-13T07:44:53;20.10;99.90
2489;DHT22;1255;48.716;9.124;2023-07-13T07:47:19;20.20;99.90
2489;DHT22;1255;48.716;9.124;2023-07-13T07:49:46;20.30;99.90
2489;DHT22;1255;48.716;9.124;2023-07-13T07:52:13;20.40;99.40
2489;DHT22;1255;48.716;9.124;2023-07-13T07:54:39;20.40;99.90
2489;DHT22;1255;48.716;9.124;2023-07-13T07:57:08;20.50;99.90
2489;DHT22;1255;48.716;9.124;2023-07-13T07:59:37;20.50;99.90
2489;DHT22;1255;48.716;9.124;2023-07-13T08:05:18;20.60;99.90
2489;DHT22;1255;48.716;9.124;2023-07-13T08:07:44;20.70;99.90
2489;DHT22;1255;48.716;9.124;2023-07-13T08:10:11;20.80;99.90
2489;DHT22;1255;48.716;9.124;2023-07-13T08:12:40;20.80;99.90
2489;DHT22;1255;48.716;9.124;2023-07-13T08:15:10;20.90;99.90
2489;DHT22;1255;48.716;9.124;2023-07-13T08:17:37;21.00;99.90
2489;DHT22;1255;48.716;9.124;2023-07-13T08:20:05;21.10;99.90
2489;DHT22;1255;48.716;9.124;2023-07-13T08:22:32;21.10;99.90
2489;DHT22;1255;48.716;9.124;2023-07-13T08:24:59;21.20;99.90
2489;DHT22;1255;48.716;9.124;2023-07-13T08:27:27;21.30;99.90
2489;DHT22;1255;48.716;9.124;2023-07-13T08:29:55;21.30;99.90
2489;DHT22;1255;48.716;9.124;2023-07-13T08:32:23;21.30;99.10
2489;DHT22;1255;48.716;9.124;2023-07-13T08:34:50;21.40;99.60
2489;DHT22;1255;48.716;9.124;2023-07-13T08:37:18;21.40;99.80
2489;DHT22;1255;48.716;9.124;2023-07-13T08:39:45;21.40;99.90
2489;DHT22;1255;48.716;9.124;2023-07-13T08:42:31;21.40;99.90
2489;DHT22;1255;48.716;9.124;2023-07-13T08:45:07;21.50;99.90
2489;DHT22;1255;48.716;9.124;2023-07-13T08:47:37;21.70;99.90
2489;DHT22;1255;48.716;9.124;2023-07-13T08:50:12;21.80;99.90
2489;DHT22;1255;48.716;9.124;2023-07-13T08:52:41;21.80;98.50
2489;DHT22;1255;48.716;9.124;2023-07-13T08:55:13;21.90;97.90
2489;DHT22;1255;48.716;9.124;2023-07-13T08:57:43;21.90;98.70
2489;DHT22;1255;48.716;9.124;2023-07-13T09:00:13;22.00;98.90
2489;DHT22;1255;48.716;9.124;2023-07-13T09:02:45;22.00;98.80
2489;DHT22;1255;48.716;9.124;2023-07-13T09:05:15;22.10;99.90
2489;DHT22;1255;48.716;9.124;2023-07-13T09:07:57;22.10;98.20
2489;DHT22;1255;48.716;9.124;2023-07-13T09:10:28;22.10;99.90
2489;DHT22;1255;48.716;9.124;2023-07-13T09:13:04;22.20;99.30
2489;DHT22;1255;48.716;9.124;2023-07-13T09:15:36;22.30;99.40
2489;DHT22;1255;48.716;9.124;2023-07-13T09:18:06;22.40;99.20
2489;DHT22;1255;48.716;9.124;2023-07-13T09:20:37;22.50;98.80
2489;DHT22;1255;48.716;9.124;2023-07-13T09:23:10;22.60;98.30
2489;DHT22;1255;48.716;9.124;2023-07-13T09:25:40;22.60;99.90
2489;DHT22;1255;48.716;9.124;2023-07-13T09:28:13;22.60;98.80
2489;DHT22;1255;48.716;9.124;2023-07-13T09:30:48;22.60;97.80
2489;DHT22;1255;48.716;9.124;2023-07-13T09:33:17;22.50;97.90
2489;DHT22;1255;48.716;9.124;2023-07-13T09:35:44;22.50;99.70
2489;DHT22;1255;48.716;9.124;2023-07-13T09:38:13;22.60;98.90
2489;DHT22;1255;48.716;9.124;2023-07-13T09:40:47;22.90;99.60
2489;DHT22;1255;48.716;9.124;2023-07-13T09:43:18;23.00;99.50
2489;DHT22;1255;48.716;9.124;2023-07-13T09:45:48;23.00;99.20
2489;DHT22;1255;48.716;9.124;2023-07-13T09:48:16;23.10;99.20
2489;DHT22;1255;48.716;9.124;2023-07-13T09:50:44;22.90;96.70
2489;DHT22;1255;48.716;9.124;2023-07-13T09:53:12;22.80;97.70
2489;DHT22;1255;48.716;9.124;2023-07-13T09:55:41;22.90;97.90
2489;DHT22;1255;48.716;9.124;2023-07-13T09:58:11;23.00;98.20
2489;DHT22;1255;48.716;9.124;2023-07-13T10:00:39;23.10;98.50
2489;DHT22;1255;48.716;9.124;2023-07-13T10:03:18;23.10;96.90
2489;DHT22;1255;48.716;9.124;2023-07-13T10:05:47;23.10;97.80
2489;DHT22;1255;48.716;9.124;2023-07-13T10:08:18;23.10;99.60
2489;DHT22;1255;48.716;9.124;2023-07-13T10:10:45;23.10;97.60
2489;DHT22;1255;48.716;9.124;2023-07-13T10:13:29;23.20;99.00
2489;DHT22;1255;48.716;9.124;2023-07-13T10:15:57;23.20;99.00
2489;DHT22;1255;48.716;9.124;2023-07-13T10:18:27;23.30;97.20
2489;DHT22;1255;48.716;9.124;2023-07-13T10:21:00;23.30;96.00
2489;DHT22;1255;48.716;9.124;2023-07-13T10:23:35;23.30;97.00
2489;DHT22;1255;48.716;9.124;2023-07-13T10:26:02;23.40;97.00
2489;DHT22;1255;48.716;9.124;2023-07-13T10:28:33;23.60;98.60
2489;DHT22;1255;48.716;9.124;2023-07-13T10:31:01;23.70;95.40
2489;DHT22;1255;48.716;9.124;2023-07-13T10:33:30;23.80;97.40
2489;DHT22;1255;48.716;9.124;2023-07-13T10:36:07;23.80;98.50
2489;DHT22;1255;48.716;9.124;2023-07-13T10:38:38;23.70;97.40
2489;DHT22;1255;48.716;9.124;2023-07-13T10:41:07;23.60;97.60
2489;DHT22;1255;48.716;9.124;2023-07-13T10:43:42;23.60;98.70
2489;DHT22;1255;48.716;9.124;2023-07-13T10:46:11;23.60;98.80
2489;DHT22;1255;48.716;9.124;2023-07-13T10:48:42;23.70;98.10
2489;DHT22;1255;48.716;9.124;2023-07-13T10:51:13;23.60;98.30
2489;DHT22;1255;48.716;9.124;2023-07-13T10:53:40;23.50;97.80
2489;DHT22;1255;48.716;9.124;2023-07-13T10:56:22;23.50;98.60
2489;DHT22;1255;48.716;9.124;2023-07-13T10:59:02;23.40;99.10
2489;DHT22;1255;48.716;9.124;2023-07-13T11:01:40;23.50;98.20
2489;DHT22;1255;48.716;9.124;2023-07-13T11:04:12;23.50;98.50
2489;DHT22;1255;48.716;9.124;2023-07-13T11:06:49;23.60;98.40
2489;DHT22;1255;48.716;9.124;2023-07-13T11:09:38;23.60;98.20
2489;DHT22;1255;48.716;9.124;2023-07-13T11:12:27;23.90;98.10
2489;DHT22;1255;48.716;9.124;2023-07-13T11:15:06;24.10;99.00
2489;DHT22;1255;48.716;9.124;2023-07-13T11:17:46;24.30;97.90
2489;DHT22;1255;48.716;9.124;2023-07-13T11:20:34;24.50;98.20
2489;DHT22;1255;48.716;9.124;2023-07-13T11:23:17;24.60;98.40
2489;DHT22;1255;48.716;9.124;2023-07-13T11:25:45;24.50;96.50
2489;DHT22;1255;48.716;9.124;2023-07-13T11:28:23;24.50;96.30
2489;DHT22;1255;48.716;9.124;2023-07-13T11:31:12;24.30;95.50
2489;DHT22;1255;48.716;9.124;2023-07-13T11:33:58;24.10;95.50
2489;DHT22;1255;48.716;9.124;2023-07-13T11:36:32;24.10;96.70
2489;DHT22;1255;48.716;9.124;2023-07-13T11:39:04;24.30;96.70
2489;DHT22;1255;48.716;9.124;2023-07-13T11:41:43;24.60;96.60
2489;DHT22;1255;48.716;9.124;2023-07-13T11:44:13;24.90;97.40
2489;DHT22;1255;48.716;9.124;2023-07-13T11:46:45;25.10;95.80
2489;DHT22;1255;48.716;9.124;2023-07-13T11:49:15;25.40;97.00
2489;DHT22;1255;48.716;9.124;2023-07-13T11:51:44;25.50;96.80
2489;DHT22;1255;48.716;9.124;2023-07-13T11:54:22;25.50;97.60
2489;DHT22;1255;48.716;9.124;2023-07-13T11:56:49;25.20;94.70
2489;DHT22;1255;48.716;9.124;2023-07-13T11:59:18;25.20;96.00
2489;DHT22;1255;48.716;9.124;2023-07-13T12:01:46;25.20;95.00
2489;DHT22;1255;48.716;9.124;2023-07-13T12:04:22;25.40;94.70
2489;DHT22;1255;48.716;9.124;2023-07-13T12:06:56;25.50;96.60
2489;DHT22;1255;48.716;9.124;2023-07-13T12:09:27;25.80;97.00
2489;DHT22;1255;48.716;9.124;2023-07-13T12:11:55;25.90;94.90
2489;DHT22;1255;48.716;9.124;2023-07-13T12:14:22;25.70;94.80
2489;DHT22;1255;48.716;9.124;2023-07-13T12:16:52;25.40;94.90
2489;DHT22;1255;48.716;9.124;2023-07-13T12:19:21;25.20;95.60
2489;DHT22;1255;48.716;9.124;2023-07-13T12:21:49;25.10;96.40
2489;DHT22;1255;48.716;9.124;2023-07-13T12:24:19;25.10;96.60
2489;DHT22;1255;48.716;9.124;2023-07-13T12:26:51;25.30;96.40
2489;DHT22;1255;48.716;9.124;2023-07-13T12:29:18;25.60;93.80
2489;DHT22;1255;48.716;9.124;2023-07-13T12:31:47;25.90;96.00
2489;DHT22;1255;48.716;9.124;2023-07-13T12:34:15;25.90;96.10
2489;DHT22;1255;48.716;9.124;2023-07-13T12:36:46;25.70;94.30
2489;DHT22;1255;48.716;9.124;2023-07-13T12:39:18;25.50;93.80
2489;DHT22;1255;48.716;9.124;2023-07-13T12:41:46;25.20;94.70
2489;DHT22;1255;48.716;9.124;2023-07-13T12:44:16;25.00;95.00
2489;DHT22;1255;48.716;9.124;2023-07-13T12:46:55;25.10;97.30
2489;DHT22;1255;48.716;9.124;2023-07-13T12:49:28;25.30;96.50
2489;DHT22;1255;48.716;9.124;2023-07-13T12:51:59;25.60;95.60
2489;DHT22;1255;48.716;9.124;2023-07-13T12:54:28;25.90;96.60
2489;DHT22;1255;48.716;9.124;2023-07-13T12:56:57;26.00;95.50
2489;DHT22;1255;48.716;9.124;2023-07-13T12:59:28;26.20;96.80
2489;DHT22;1255;48.716;9.124;2023-07-13T13:01:55;26.30;96.00
2489;DHT22;1255;48.716;9.124;2023-07-13T13:04:22;26.40;96.20
2489;DHT22;1255;48.716;9.124;2023-07-13T13:07:01;26.50;94.10
2489;DHT22;1255;48.716;9.124;2023-07-13T13:09:29;26.40;93.60
2489;DHT22;1255;48.716;9.124;2023-07-13T13:11:56;26.50;95.20
2489;DHT22;1255;48.716;9.124;2023-07-13T13:14:22;26.60;93.60
2489;DHT22;1255;48.716;9.124;2023-07-13T13:16:50;26.70;95.40
2489;DHT22;1255;48.716;9.124;2023-07-13T13:19:20;26.80;96.00
2489;DHT22;1255;48.716;9.124;2023-07-13T13:21:48;26.80;93.40
2489;DHT22;1255;48.716;9.124;2023-07-13T13:24:22;26.80;93.40
2489;DHT22;1255;48.716;9.124;2023-07-13T13:26:51;26.70;93.40
2489;DHT22;1255;48.716;9.124;2023-07-13T13:29:19;26.70;92.40
2489;DHT22;1255;48.716;9.124;2023-07-13T13:31:46;26.40;91.90
2489;DHT22;1255;48.716;9.124;2023-07-13T13:34:15;26.10;95.20
2489;DHT22;1255;48.716;9.124;2023-07-13T13:36:43;26.10;94.60
2489;DHT22;1255;48.716;9.124;2023-07-13T13:39:19;26.30;94.50
2489;DHT22;1255;48.716;9.124;2023-07-13T13:41:46;26.40;95.10
2489;DHT22;1255;48.716;9.124;2023-07-13T13:44:16;26.40;93.50
2489;DHT22;1255;48.716;9.124;2023-07-13T13:46:45;26.20;93.10
2489;DHT22;1255;48.716;9.124;2023-07-13T13:49:14;25.90;93.50
2489;DHT22;1255;48.716;9.124;2023-07-13T13:51:42;25.70;93.40
2489;DHT22;1255;48.716;9.124;2023-07-13T13:54:11;25.60;93.40
2489;DHT22;1255;48.716;9.124;2023-07-13T13:56:38;25.60;93.20
2489;DHT22;1255;48.716;9.124;2023-07-13T13:59:05;25.50;93.70
2489;DHT22;1255;48.716;9.124;2023-07-13T14:01:36;25.40;93.20
2489;DHT22;1255;48.716;9.124;2023-07-13T14:04:03;25.30;95.70
2489;DHT22;1255;48.716;9.124;2023-07-13T14:06:30;25.30;94.70
2489;DHT22;1255;48.716;9.124;2023-07-13T14:08:57;25.40;94.80
2489;DHT22;1255;48.716;9.124;2023-07-13T14:11:24;25.60;94.40
2489;DHT22;1255;48.716;9.124;2023-07-13T14:13:54;25.60;94.40
2489;DHT22;1255;48.716;9.124;2023-07-13T14:16:24;25.60;94.60
2489;DHT22;1255;48.716;9.124;2023-07-13T14:18:54;25.40;94.50
2489;DHT22;1255;48.716;9.124;2023-07-13T14:21:24;25.40;94.10
2489;DHT22;1255;48.716;9.124;2023-07-13T14:23:50;25.40;94.70
2489;DHT22;1255;48.716;9.124;2023-07-13T14:26:19;25.20;92.90
2489;DHT22;1255;48.716;9.124;2023-07-13T14:28:47;25.00;93.00
2489;DHT22;1255;48.716;9.124;2023-07-13T14:31:16;24.90;95.50
2489;DHT22;1255;48.716;9.124;2023-07-13T14:33:44;25.10;94.80
2489;DHT22;1255;48.716;9.124;2023-07-13T14:36:21;25.30;94.00
2489;DHT22;1255;48.716;9.124;2023-07-13T14:38:49;25.60;93.70
2489;DHT22;1255;48.716;9.124;2023-07-13T14:41:16;25.80;93.60
2489;DHT22;1255;48.716;9.124;2023-07-13T14:43:43;26.00;94.20
2489;DHT22;1255;48.716;9.124;2023-07-13T14:46:18;26.00;93.90
2489;DHT22;1255;48.716;9.124;2023-07-13T14:48:48;26.20;94.40
2489;DHT22;1255;48.716;9.124;2023-07-13T14:51:17;26.10;92.20
2489;DHT22;1255;48.716;9.124;2023-07-13T14:53:43;25.80;91.90
2489;DHT22;1255;48.716;9.124;2023-07-13T14:56:11;25.70;93.00
2489;DHT22;1255;48.716;9.124;2023-07-13T14:58:38;25.80;93.90
2489;DHT22;1255;48.716;9.124;2023-07-13T15:01:09;26.00;94.10
2489;DHT22;1255;48.716;9.124;2023-07-13T15:03:38;25.90;92.60
2489;DHT22;1255;48.716;9.124;2023-07-13T15:06:09;25.70;92.60
2489;DHT22;1255;48.716;9.124;2023-07-13T15:08:38;25.40;92.80
2489;DHT22;1255;48.716;9.124;2023-07-13T15:11:06;25.40;92.70
2489;DHT22;1255;48.716;9.124;2023-07-13T15:13:33;25.40;92.80
2489;DHT22;1255;48.716;9.124;2023-07-13T15:16:00;25.60;94.40
2489;DHT22;1255;48.716;9.124;2023-07-13T15:18:28;25.70;92.70
2489;DHT22;1255;48.716;9.124;2023-07-13T15:20:55;25.70;93.20
2489;DHT22;1255;48.716;9.124;2023-07-13T15:23:25;25.60;93.60
2489;DHT22;1255;48.716;9.124;2023-07-13T15:25:53;25.30;93.10
2489;DHT22;1255;48.716;9.124;2023-07-13T15:28:20;25.20;93.70
2489;DHT22;1255;48.716;9.124;2023-07-13T15:30:48;25.10;92.80
2489;DHT22;1255;48.716;9.124;2023-07-13T15:33:19;24.90;92.00
2489;DHT22;1255;48.716;9.124;2023-07-13T15:35:47;24.80;92.60
2489;DHT22;1255;48.716;9.124;2023-07-13T15:38:18;24.60;92.40
2489;DHT22;1255;48.716;9.124;2023-07-13T15:40:46;24.50;92.60
2489;DHT22;1255;48.716;9.124;2023-07-13T15:43:16;24.60;92.90
2489;DHT22;1255;48.716;9.124;2023-07-13T15:45:43;24.70;93.20
2489;DHT22;1255;48.716;9.124;2023-07-13T15:48:17;24.90;92.90
2489;DHT22;1255;48.716;9.124;2023-07-13T15:50:45;24.90;92.50
2489;DHT22;1255;48.716;9.124;2023-07-13T15:53:13;24.90;93.20
2489;DHT22;1255;48.716;9.124;2023-07-13T15:55:41;24.90;92.60
2489;DHT22;1255;48.716;9.124;2023-07-13T15:58:12;24.90;92.60
2489;DHT22;1255;48.716;9.124;2023-07-13T16:00:42;24.90;92.30
2489;DHT22;1255;48.716;9.124;2023-07-13T16:03:10;25.00;92.40
2489;DHT22;1255;48.716;9.124;2023-07-13T16:05:37;25.00;92.70
2489;DHT22;1255;48.716;9.124;2023-07-13T16:08:05;25.20;92.80
2489;DHT22;1255;48.716;9.124;2023-07-13T16:10:34;25.20;93.00
2489;DHT22;1255;48.716;9.124;2023-07-13T16:13:03;25.20;92.20
2489;DHT22;1255;48.716;9.124;2023-07-13T16:15:31;25.10;92.40
2489;DHT22;1255;48.716;9.124;2023-07-13T16:18:00;25.10;92.80